Página principal
METAR-TAF:

METAR-TAF

Aeroportos :

Alice Springs, Austrália

latitude: 23-48S, longitude: 133-53E, altura: 545 m

Observação actual do tempo

O boletim foi feito há 35 minutos, às 19:30 UTC
Vento 10 kt de sudeste
Temperatura 21°C
Humidade 53%
Pressão 1017 hPa
Visibilidade 10 km ou mais

METAR: YBAS 251930Z AUTO 14010KT 9999 // ////// 21/11 Q1017 RF00.0/001.6

Hora: 05:35 (20:05 UTC)

Previsão

O boletim foi feito há 18 minutos, às 19:47 UTC
Previsão válida de 25 às 19 UTC a 26 às 18 UTC
Vento 14 kt de su-sudeste
Visibilidade 10 km ou mais
sem nuvens abaixo de 1500 metros e sem cumulonimbus
A partir de 26 às 0000 UTC
Vento 18 kt de sudeste com rajadas de 28 kt
Visibilidade 10 km ou mais
sem nuvens abaixo de 1500 metros e sem cumulonimbus
A partir de 26 às 0800 UTC
Vento 10 kt de sudeste
Visibilidade 10 km ou mais
sem nuvens abaixo de 1500 metros e sem cumulonimbus

TAF: YBAS 251947Z 2519/2618 15014KT CAVOK FM260000 14018G28KT CAVOK FM260800 14010KT CAVOK

Observações e previsões do tempo de mais de 4000 aeroportos (mensagens METAR e TAF).

As estações disponíveis são os pontos amarelos e vermelhos sobre o mapa.

Mova o rato sobre o mapa para ver o nome da estação.

Depois clique no ponto para visualizar as observações e previsões meteorológicas.

Para alterar o mapa : clique nos botões verdes com uma cruz preta para aumentar o zoom; no botão verde com uma pitada de zoom; ou nas setas verdes para mapas adjacentes.


METAR-TAF: